Terminal Aerodrome Forecast
Issued by NWS

Home | Current Version | Previous Version | Text Only | Print | Product List | Glossary Off
Versions: 1 2 3 4 5 6 7 8 9 10 11 12 13 14

000
FTUS43 KLSX 202300
TAFUIN
TAF
KUIN 202321Z 2100/2124 VRB04KT P6SM SKC
     FM211600 14010KT P6SM BKN250
     FM212100 14010KT P6SM OVC040=

USA.gov is the U.S. government's official web portal to all federal, state and local government web resources and services.